Time;durP1;ratioP1;P1;durP2;ratioP2;P2;SDS_P1;SDS_P2;PMS_P1;PMS_P2;Temp;Humidity;BMP_temperature;BMP_pressure;BME280_temperature;BME280_humidity;BME280_pressure;Samples;Min_cycle;Max_cycle;Signal;HPM_P1;HPM_P2
2022/01/27 00:01:07;;;;;;;38.63;6.25;;;;;;;;;;5039961;28;20055;-63
2022/01/27 00:03:43;;;;;;;44.38;4.82;;;;;;;;;;5043631;28;20084;-63
2022/01/27 00:06:17;;;;;;;35.53;6.40;;;;;;;;;;5041681;28;20041;-63
2022/01/27 00:08:51;;;;;;;33.20;5.22;;;;;;;;;;5043636;28;20048;-63
2022/01/27 00:11:24;;;;;;;39.60;5.13;;;;;;;;;;5043244;28;20083;-63
2022/01/27 00:13:58;;;;;;;35.22;4.90;;;;;;;;;;5039880;28;20080;-63
2022/01/27 00:16:34;;;;;;;29.38;4.32;;;;;;;;;;5040228;28;20083;-63
2022/01/27 00:19:00;;;;;;;28.58;4.93;;;;;;;;;;5044339;28;20056;-63
2022/01/27 00:21:28;;;;;;;31.27;4.18;;;;;;;;;;5043146;28;20478;-63
2022/01/27 00:23:54;;;;;;;;;;;;;;;;;;5041292;28;20152;-63
2022/01/27 00:26:21;;;;;;;35.90;5.03;;;;;;;;;;5043267;28;19921;-63
2022/01/27 00:28:48;;;;;;;29.60;4.22;;;;;;;;;;5043056;28;20045;-63
2022/01/27 00:31:16;;;;;;;28.05;4.43;;;;;;;;;;5039926;28;20794;-63
2022/01/27 00:33:43;;;;;;;25.70;5.07;;;;;;;;;;5044489;28;20052;-64
2022/01/27 00:36:10;;;;;;;31.05;3.92;;;;;;;;;;5040798;28;20077;-65
2022/01/27 00:38:37;;;;;;;18.88;4.18;;;;;;;;;;5039860;28;20049;-65
2022/01/27 00:41:03;;;;;;;24.67;4.03;;;;;;;;;;5041396;28;20057;-66
2022/01/27 00:43:30;;;;;;;27.97;3.93;;;;;;;;;;5044471;28;20045;-66
2022/01/27 00:45:56;;;;;;;17.17;3.05;;;;;;;;;;5040930;28;20338;-65
2022/01/27 00:48:23;;;;;;;25.38;3.40;;;;;;;;;;5043814;28;20061;-65
2022/01/27 00:50:56;;;;;;;23.20;3.35;;;;;;;;;;5043211;28;20091;-65
2022/01/27 00:56:39;;;;;;;20.58;3.17;;;;;;;;;;5016191;28;20095;-65
2022/01/27 01:02:36;;;;;;;19.67;2.67;;;;;;;;;;4990032;28;20046;-66
2022/01/27 01:05:31;;;;;;;13.35;2.75;;;;;;;;;;5036759;28;20503;-66
2022/01/27 01:07:54;;;;;;;14.55;2.53;;;;;;;;;;5036779;28;20493;-66
2022/01/27 01:15:40;;;;;;;17.52;2.65;;;;;;;;;;5043192;28;20132;-66
2022/01/27 01:34:23;;;;;;;12.60;2.75;;;;;;;;;;5041628;28;20056;-65
2022/01/27 01:36:56;;;;;;;10.20;1.88;;;;;;;;;;5042049;28;20107;-66
2022/01/27 01:39:23;;;;;;;8.60;1.77;;;;;;;;;;5040696;28;20103;-66
2022/01/27 01:41:50;;;;;;;17.10;2.08;;;;;;;;;;5035970;28;20076;-66
2022/01/27 01:44:17;;;;;;;2.53;1.20;;;;;;;;;;5043325;28;20467;-66
2022/01/27 01:46:44;;;;;;;3.33;1.30;;;;;;;;;;5041689;28;20107;-66
2022/01/27 01:49:11;;;;;;;3.13;1.20;;;;;;;;;;5043605;28;20564;-66
2022/01/27 01:51:38;;;;;;;4.30;1.60;;;;;;;;;;5041153;28;20140;-66
2022/01/27 01:54:06;;;;;;;7.70;1.30;;;;;;;;;;5042185;28;20147;-66
2022/01/27 01:56:32;;;;;;;;;;;;;;;;;;5045701;28;20072;-66
2022/01/27 01:58:58;;;;;;;3.72;0.90;;;;;;;;;;5045581;28;20075;-66
2022/01/27 02:01:25;;;;;;;1.20;0.80;;;;;;;;;;5046913;28;20037;-66
2022/01/27 02:03:51;;;;;;;3.10;1.17;;;;;;;;;;5045460;28;20479;-66
2022/01/27 02:06:32;;;;;;;1.42;1.15;;;;;;;;;;5044900;28;20139;-66
2022/01/27 02:09:15;;;;;;;1.73;0.90;;;;;;;;;;5046568;28;20085;-65
2022/01/27 02:17:58;;;;;;;3.85;1.17;;;;;;;;;;5046759;28;20057;-66
2022/01/27 02:20:07;;;;;;;1.80;1.48;;;;;;;;;;5041302;28;20508;-66
2022/01/27 02:22:34;;;;;;;1.75;1.40;;;;;;;;;;5044936;28;20091;-67
2022/01/27 02:25:00;;;;;;;3.08;1.08;;;;;;;;;;5045402;28;20084;-66
2022/01/27 02:27:27;;;;;;;1.63;1.30;;;;;;;;;;5043509;28;20516;-66
2022/01/27 02:29:54;;;;;;;1.23;1.13;;;;;;;;;;5045621;28;20143;-66
2022/01/27 02:32:22;;;;;;;1.50;1.40;;;;;;;;;;5041013;28;20080;-66
2022/01/27 02:34:51;;;;;;;3.72;1.73;;;;;;;;;;5047113;28;20140;-66
2022/01/27 02:37:18;;;;;;;3.75;1.63;;;;;;;;;;5044727;28;20045;-65
2022/01/27 02:39:44;;;;;;;2.00;1.50;;;;;;;;;;5043921;28;20060;-65
2022/01/27 02:42:25;;;;;;;2.15;1.40;;;;;;;;;;5043331;28;20049;-65
2022/01/27 02:44:55;;;;;;;1.70;1.30;;;;;;;;;;5043180;28;20076;-66
2022/01/27 02:47:23;;;;;;;2.28;1.20;;;;;;;;;;5042251;28;20583;-66
2022/01/27 02:49:49;;;;;;;2.25;1.40;;;;;;;;;;5041226;28;20136;-66
2022/01/27 02:52:16;;;;;;;4.13;1.27;;;;;;;;;;5043510;28;20053;-65
2022/01/27 02:54:49;;;;;;;2.60;1.20;;;;;;;;;;5043248;28;20063;-66
2022/01/27 02:57:21;;;;;;;1.50;1.10;;;;;;;;;;5041872;28;20040;-65
2022/01/27 02:59:48;;;;;;;1.35;1.10;;;;;;;;;;5040186;28;20053;-65
2022/01/27 03:02:16;;;;;;;1.55;0.90;;;;;;;;;;5044760;28;20078;-66
2022/01/27 03:04:42;;;;;;;1.50;0.90;;;;;;;;;;5043075;28;20456;-66
2022/01/27 03:07:09;;;;;;;2.63;1.02;;;;;;;;;;5044985;28;20411;-65
2022/01/27 03:09:36;;;;;;;2.15;1.08;;;;;;;;;;5042809;28;20134;-66
2022/01/27 03:12:06;;;;;;;4.15;1.10;;;;;;;;;;5044844;28;20140;-65
2022/01/27 03:14:34;;;;;;;3.03;1.10;;;;;;;;;;5043998;28;20044;-66
2022/01/27 03:17:00;;;;;;;1.35;1.02;;;;;;;;;;5043926;28;20057;-66
2022/01/27 03:19:27;;;;;;;1.20;0.77;;;;;;;;;;5041802;28;20124;-65
2022/01/27 03:21:54;;;;;;;0.60;0.60;;;;;;;;;;5045634;28;20049;-66
2022/01/27 03:24:27;;;;;;;3.22;1.10;;;;;;;;;;5046207;28;20136;-65
2022/01/27 03:26:54;;;;;;;0.82;0.70;;;;;;;;;;5046974;28;20390;-65
2022/01/27 03:29:21;;;;;;;1.25;0.90;;;;;;;;;;5043474;28;20504;-65
2022/01/27 03:31:48;;;;;;;2.10;0.60;;;;;;;;;;5043430;28;20057;-66
2022/01/27 03:34:14;;;;;;;6.82;1.35;;;;;;;;;;5043552;28;20296;-65
2022/01/27 03:36:41;;;;;;;7.55;1.33;;;;;;;;;;5042253;28;20115;-65
2022/01/27 03:39:09;;;;;;;13.83;2.07;;;;;;;;;;5040646;28;20049;-65
2022/01/27 03:41:37;;;;;;;19.45;2.97;;;;;;;;;;5043764;28;20041;-66
2022/01/27 03:44:04;;;;;;;15.90;2.95;;;;;;;;;;5042131;28;20065;-65
2022/01/27 03:46:31;;;;;;;22.35;3.42;;;;;;;;;;5043676;28;20070;-65
2022/01/27 03:48:57;;;;;;;14.10;3.65;;;;;;;;;;5048165;28;20053;-65
2022/01/27 03:51:24;;;;;;;22.52;3.80;;;;;;;;;;5043962;28;20132;-65
2022/01/27 03:53:52;;;;;;;15.77;4.20;;;;;;;;;;5044632;28;20480;-65
2022/01/27 03:56:19;;;;;;;23.80;3.78;;;;;;;;;;5042282;28;20040;-65
2022/01/27 03:58:46;;;;;;;24.63;4.87;;;;;;;;;;5045240;28;20059;-65
2022/01/27 04:01:12;;;;;;;35.58;5.28;;;;;;;;;;5044340;28;20052;-65
2022/01/27 04:03:39;;;;;;;26.67;5.22;;;;;;;;;;5043710;28;20099;-65
2022/01/27 04:06:08;;;;;;;57.25;7.00;;;;;;;;;;5040834;28;20131;-65
2022/01/27 04:08:37;;;;;;;37.40;5.93;;;;;;;;;;5042709;28;20500;-65
2022/01/27 04:11:08;;;;;;;45.00;7.50;;;;;;;;;;5040731;28;20501;-65
2022/01/27 04:13:35;;;;;;;54.17;7.38;;;;;;;;;;5042677;28;20056;-65
2022/01/27 04:16:05;;;;;;;50.53;8.77;;;;;;;;;;5042599;28;20135;-65
2022/01/27 04:18:32;;;;;;;55.67;8.48;;;;;;;;;;5043435;28;20049;-66
2022/01/27 04:20:58;;;;;;;61.80;8.63;;;;;;;;;;5042670;28;20163;-65
2022/01/27 04:23:25;;;;;;;62.60;9.32;;;;;;;;;;5040165;28;20077;-65
2022/01/27 04:25:52;;;;;;;68.80;10.60;;;;;;;;;;5041677;28;20053;-65
2022/01/27 04:28:31;;;;;;;73.07;10.90;;;;;;;;;;5040938;28;20451;-66
2022/01/27 04:31:07;;;;;;;79.97;10.27;;;;;;;;;;5042041;28;20341;-65
2022/01/27 04:33:35;;;;;;;65.82;9.25;;;;;;;;;;5044143;28;20084;-65
2022/01/27 04:36:07;;;;;;;81.70;10.88;;;;;;;;;;5040538;28;20133;-65
2022/01/27 04:38:49;;;;;;;76.75;10.10;;;;;;;;;;5041119;28;20076;-66
2022/01/27 04:44:16;;;;;;;70.53;9.77;;;;;;;;;;5042098;28;20131;-65
2022/01/27 04:46:50;;;;;;;70.45;9.50;;;;;;;;;;5030020;28;20128;-65
2022/01/27 04:49:17;;;;;;;71.28;9.48;;;;;;;;;;5041233;28;20499;-65
2022/01/27 04:51:44;;;;;;;67.05;9.15;;;;;;;;;;5040701;28;20091;-65
2022/01/27 04:54:29;;;;;;;78.20;10.25;;;;;;;;;;5037423;28;20421;-66
2022/01/27 04:57:00;;;;;;;59.35;9.93;;;;;;;;;;5039635;28;20060;-66
2022/01/27 04:59:34;;;;;;;56.08;9.07;;;;;;;;;;5038081;28;20124;-66
2022/01/27 05:02:05;;;;;;;71.05;9.35;;;;;;;;;;5041494;28;20136;-65
2022/01/27 05:04:41;;;;;;;71.75;9.10;;;;;;;;;;5038059;28;20182;-67
2022/01/27 05:07:08;;;;;;;66.20;9.60;;;;;;;;;;5043314;28;20140;-65
2022/01/27 05:09:35;;;;;;;69.60;9.60;;;;;;;;;;5040938;28;20056;-66
2022/01/27 05:14:35;;;;;;;72.50;8.32;;;;;;;;;;5043009;28;20588;-66
2022/01/27 05:17:02;;;;;;;68.38;9.90;;;;;;;;;;5045626;28;20049;-66
2022/01/27 05:19:28;;;;;;;65.70;9.70;;;;;;;;;;5041843;28;20187;-65
2022/01/27 05:21:55;;;;;;;73.75;9.02;;;;;;;;;;5039705;28;20484;-66
2022/01/27 05:24:21;;;;;;;67.28;9.52;;;;;;;;;;5043982;28;20587;-65
2022/01/27 05:26:48;;;;;;;52.58;7.45;;;;;;;;;;5040757;28;20132;-66
2022/01/27 05:29:15;;;;;;;52.85;7.80;;;;;;;;;;5043475;28;20068;-66
2022/01/27 05:31:43;;;;;;;69.85;8.13;;;;;;;;;;5043679;28;20052;-66
2022/01/27 05:34:10;;;;;;;57.30;8.73;;;;;;;;;;5042424;28;20053;-66
2022/01/27 05:36:37;;;;;;;55.58;8.77;;;;;;;;;;5046070;28;20064;-66
2022/01/27 05:39:03;;;;;;;60.35;8.55;;;;;;;;;;5042560;28;20126;-66
2022/01/27 05:41:30;;;;;;;64.25;9.48;;;;;;;;;;5044707;28;20148;-65
2022/01/27 05:43:59;;;;;;;59.90;8.50;;;;;;;;;;5044454;28;20135;-65
2022/01/27 05:46:25;;;;;;;62.97;8.68;;;;;;;;;;5046436;28;20084;-65
2022/01/27 05:48:52;;;;;;;61.40;9.38;;;;;;;;;;5046098;28;20218;-65
2022/01/27 05:51:19;;;;;;;63.88;9.48;;;;;;;;;;5041827;28;20099;-66
2022/01/27 05:53:46;;;;;;;48.63;8.32;;;;;;;;;;5047761;28;20076;-65
2022/01/27 05:56:12;;;;;;;57.67;7.32;;;;;;;;;;5044202;28;20081;-66
2022/01/27 05:58:39;;;;;;;70.25;9.68;;;;;;;;;;5041656;28;20711;-65
2022/01/27 06:01:05;;;;;;;65.40;9.75;;;;;;;;;;5043828;28;20128;-66
2022/01/27 06:03:32;;;;;;;63.22;8.90;;;;;;;;;;5046264;28;20048;-65
2022/01/27 06:06:02;;;;;;;77.95;8.75;;;;;;;;;;5044661;28;20092;-66
2022/01/27 06:08:30;;;;;;;64.85;9.05;;;;;;;;;;5044744;28;20136;-66
2022/01/27 06:10:57;;;;;;;65.22;9.32;;;;;;;;;;5042732;28;20560;-65
2022/01/27 06:13:30;;;;;;;62.53;8.50;;;;;;;;;;5045226;28;20467;-65
2022/01/27 06:15:56;;;;;;;43.45;8.23;;;;;;;;;;5044896;28;20175;-65
2022/01/27 06:18:23;;;;;;;57.63;9.00;;;;;;;;;;5046535;28;20049;-66
2022/01/27 06:20:50;;;;;;;49.90;8.43;;;;;;;;;;5040086;28;20049;-65
2022/01/27 06:23:16;;;;;;;56.80;9.10;;;;;;;;;;5042879;28;20053;-65
2022/01/27 06:25:43;;;;;;;61.72;7.95;;;;;;;;;;5037778;28;20546;-65
2022/01/27 06:28:09;;;;;;;60.78;9.18;;;;;;;;;;5039122;28;20045;-66
2022/01/27 06:30:36;;;;;;;64.80;8.43;;;;;;;;;;5043334;28;20051;-65
2022/01/27 06:33:04;;;;;;;70.43;8.57;;;;;;;;;;5044709;28;20413;-65
2022/01/27 06:35:31;;;;;;;62.92;8.80;;;;;;;;;;5038150;28;20440;-65
2022/01/27 06:37:57;;;;;;;63.58;7.95;;;;;;;;;;5037012;28;20048;-65
2022/01/27 06:40:24;;;;;;;59.58;9.07;;;;;;;;;;5039066;28;20144;-66
2022/01/27 06:42:51;;;;;;;58.10;7.47;;;;;;;;;;5040228;28;20499;-66
2022/01/27 06:45:17;;;;;;;57.87;8.60;;;;;;;;;;5041840;28;20099;-66
2022/01/27 06:47:44;;;;;;;58.00;8.20;;;;;;;;;;5042034;28;20304;-65
2022/01/27 06:50:10;;;;;;;61.92;8.68;;;;;;;;;;5044604;28;20063;-65
2022/01/27 06:52:37;;;;;;;69.93;9.18;;;;;;;;;;5043046;28;20073;-65
2022/01/27 06:55:04;;;;;;;54.55;8.45;;;;;;;;;;5044541;28;20153;-65
2022/01/27 06:57:34;;;;;;;62.28;8.38;;;;;;;;;;5040894;28;20107;-65
2022/01/27 07:00:01;;;;;;;59.47;9.63;;;;;;;;;;5043447;28;20076;-65
2022/01/27 07:02:27;;;;;;;60.25;9.00;;;;;;;;;;5044284;28;20060;-65
2022/01/27 07:04:54;;;;;;;71.88;7.55;;;;;;;;;;5032348;28;20057;-66
2022/01/27 07:07:21;;;;;;;49.97;6.88;;;;;;;;;;5037600;28;20144;-65
2022/01/27 07:09:47;;;;;;;68.72;9.98;;;;;;;;;;5043994;28;20456;-65
2022/01/27 07:12:14;;;;;;;63.20;8.88;;;;;;;;;;5045836;28;20128;-65
2022/01/27 07:14:40;;;;;;;59.80;9.07;;;;;;;;;;5046806;28;20493;-66
2022/01/27 07:17:07;;;;;;;43.72;7.20;;;;;;;;;;5042611;28;20084;-65
2022/01/27 07:19:37;;;;;;;53.45;7.25;;;;;;;;;;5044018;28;20115;-65
2022/01/27 07:22:03;;;;;;;63.20;9.10;;;;;;;;;;5042805;28;20049;-65
2022/01/27 07:24:30;;;;;;;64.97;8.32;;;;;;;;;;5043048;28;20107;-65
2022/01/27 07:26:56;;;;;;;56.83;7.07;;;;;;;;;;5039580;28;20053;-65
2022/01/27 07:29:23;;;;;;;64.82;9.60;;;;;;;;;;5040361;28;20051;-66
2022/01/27 07:31:49;;;;;;;87.72;9.48;;;;;;;;;;5044610;28;20123;-65
2022/01/27 07:34:18;;;;;;;59.05;8.77;;;;;;;;;;5044541;28;20055;-66
2022/01/27 07:36:44;;;;;;;59.80;7.88;;;;;;;;;;5043788;28;20075;-66
2022/01/27 07:39:14;;;;;;;65.70;7.95;;;;;;;;;;5047298;28;20096;-65
2022/01/27 07:41:42;;;;;;;62.28;8.65;;;;;;;;;;5038938;28;20477;-65
2022/01/27 07:44:08;;;;;;;58.50;10.05;;;;;;;;;;5040911;28;20135;-65
2022/01/27 07:46:35;;;;;;;57.55;9.05;;;;;;;;;;5040700;28;20136;-65
2022/01/27 07:49:01;;;;;;;65.93;9.17;;;;;;;;;;5040576;28;20181;-65
2022/01/27 07:51:28;;;;;;;64.93;8.32;;;;;;;;;;5038696;28;20360;-65
2022/01/27 07:53:54;;;;;;;63.17;8.90;;;;;;;;;;5039573;28;20053;-65
2022/01/27 07:56:31;;;;;;;50.88;8.43;;;;;;;;;;5036282;28;20036;-66
2022/01/27 07:58:57;;;;;;;70.47;9.17;;;;;;;;;;5038233;28;20048;-65
2022/01/27 08:01:24;;;;;;;58.67;6.93;;;;;;;;;;5035797;28;20088;-65
2022/01/27 08:03:51;;;;;;;70.15;7.05;;;;;;;;;;5036344;28;20044;-65
2022/01/27 08:06:18;;;;;;;61.47;9.60;;;;;;;;;;5033425;28;20623;-65
2022/01/27 08:08:44;;;;;;;58.13;8.03;;;;;;;;;;5036169;28;20534;-65
2022/01/27 08:11:11;;;;;;;66.65;8.65;;;;;;;;;;5041037;28;20042;-65
2022/01/27 08:13:37;;;;;;;48.47;7.82;;;;;;;;;;5043835;28;20059;-65
2022/01/27 08:16:11;;;;;;;54.03;8.55;;;;;;;;;;5037137;28;20051;-65
2022/01/27 08:18:44;;;;;;;57.50;8.80;;;;;;;;;;5024753;28;20148;-65
2022/01/27 08:21:18;;;;;;;69.05;8.75;;;;;;;;;;5043596;28;20381;-65
2022/01/27 08:23:45;;;;;;;49.28;6.25;;;;;;;;;;5042052;28;20232;-65
2022/01/27 08:26:15;;;;;;;56.97;7.13;;;;;;;;;;5040748;28;20088;-66
2022/01/27 08:28:57;;;;;;;57.35;8.23;;;;;;;;;;5042054;28;20136;-65
2022/01/27 08:31:32;;;;;;;49.30;7.78;;;;;;;;;;5035119;28;20091;-65
2022/01/27 08:34:04;;;;;;;74.47;9.43;;;;;;;;;;5040772;28;20045;-65
2022/01/27 08:36:30;;;;;;;64.13;8.60;;;;;;;;;;5041060;28;20080;-66
2022/01/27 08:38:57;;;;;;;62.45;8.20;;;;;;;;;;5044262;28;20135;-65
2022/01/27 08:41:23;;;;;;;69.72;9.25;;;;;;;;;;5040097;28;20534;-65
2022/01/27 08:43:53;;;;;;;71.25;10.27;;;;;;;;;;5036798;28;20060;-66
2022/01/27 08:46:25;;;;;;;46.90;6.78;;;;;;;;;;5035711;28;20049;-65
2022/01/27 08:48:52;;;;;;;63.20;9.18;;;;;;;;;;5041254;28;20439;-66
2022/01/27 08:51:21;;;;;;;61.97;7.32;;;;;;;;;;5035611;28;20128;-65
2022/01/27 08:53:48;;;;;;;56.22;7.75;;;;;;;;;;5034777;28;21682;-65
2022/01/27 08:56:16;;;;;;;70.60;8.38;;;;;;;;;;5034811;28;20051;-66
2022/01/27 08:58:44;;;;;;;68.57;8.88;;;;;;;;;;5040357;28;20523;-66
2022/01/27 09:01:10;;;;;;;63.10;7.93;;;;;;;;;;5044051;28;20068;-66
2022/01/27 09:03:45;;;;;;;79.07;10.90;;;;;;;;;;5038533;28;20185;-66
2022/01/27 09:06:12;;;;;;;58.65;8.00;;;;;;;;;;5042348;28;20049;-66
2022/01/27 09:08:59;;;;;;;66.00;9.57;;;;;;;;;;5044773;28;20064;-66
2022/01/27 09:11:28;;;;;;;76.28;9.27;;;;;;;;;;5024844;28;20132;-66
2022/01/27 09:13:55;;;;;;;81.15;9.88;;;;;;;;;;5043221;28;20132;-66
2022/01/27 09:16:26;;;;;;;62.17;8.95;;;;;;;;;;5043563;28;20137;-66
2022/01/27 09:19:13;;;;;;;63.25;8.38;;;;;;;;;;5046189;28;20055;-66
2022/01/27 09:21:43;;;;;;;48.60;8.05;;;;;;;;;;5044452;28;20134;-66
2022/01/27 09:24:40;;;;;;;59.70;8.30;;;;;;;;;;5042794;28;20064;-66
2022/01/27 09:27:07;;;;;;;69.72;8.93;;;;;;;;;;5039510;28;20055;-66
2022/01/27 09:29:33;;;;;;;76.78;9.20;;;;;;;;;;5037641;28;20682;-66
2022/01/27 09:32:02;;;;;;;53.88;8.15;;;;;;;;;;5038116;28;20042;-66
2022/01/27 09:34:29;;;;;;;69.13;8.20;;;;;;;;;;5030060;28;20056;-66
2022/01/27 09:37:01;;;;;;;68.60;9.23;;;;;;;;;;5037297;28;20060;-66
2022/01/27 09:39:28;;;;;;;70.55;9.40;;;;;;;;;;5038889;28;20045;-65
2022/01/27 09:41:56;;;;;;;64.97;8.20;;;;;;;;;;5039685;28;20409;-65
2022/01/27 09:44:29;;;;;;;68.05;9.02;;;;;;;;;;5023356;28;20588;-66
2022/01/27 09:47:00;;;;;;;40.17;6.35;;;;;;;;;;5018110;28;20049;-66
2022/01/27 09:49:37;;;;;;;56.05;7.72;;;;;;;;;;5021323;28;20104;-65
2022/01/27 09:52:04;;;;;;;63.15;8.75;;;;;;;;;;5022112;28;20581;-66
2022/01/27 09:54:31;;;;;;;49.10;7.50;;;;;;;;;;5021356;28;20421;-65
2022/01/27 09:56:58;;;;;;;52.15;8.07;;;;;;;;;;5020998;28;20085;-65
2022/01/27 09:59:24;;;;;;;52.60;7.57;;;;;;;;;;5018911;28;20100;-66
2022/01/27 10:02:05;;;;;;;46.13;6.65;;;;;;;;;;5022541;28;20049;-66
2022/01/27 10:04:48;;;;;;;66.35;7.55;;;;;;;;;;5019864;28;20140;-66
2022/01/27 10:07:27;;;;;;;54.20;7.38;;;;;;;;;;5021772;28;20049;-66
2022/01/27 10:09:58;;;;;;;44.17;6.85;;;;;;;;;;5022704;28;20073;-65
2022/01/27 10:12:25;;;;;;;50.08;7.10;;;;;;;;;;5021544;28;20133;-65
2022/01/27 10:15:19;;;;;;;62.85;8.45;;;;;;;;;;5019660;28;20127;-66
2022/01/27 10:18:16;;;;;;;58.33;8.55;;;;;;;;;;5018365;28;20049;-65
2022/01/27 10:20:57;;;;;;;56.33;7.80;;;;;;;;;;5025841;28;20061;-66
2022/01/27 10:23:26;;;;;;;46.83;6.93;;;;;;;;;;5019895;28;20049;-65
2022/01/27 10:25:55;;;;;;;48.90;6.53;;;;;;;;;;5018904;28;20107;-66
2022/01/27 10:28:34;;;;;;;31.70;5.40;;;;;;;;;;4999271;28;20045;-66
2022/01/27 10:31:12;;;;;;;41.97;6.03;;;;;;;;;;5022005;28;20137;-66
2022/01/27 10:33:47;;;;;;;35.15;5.30;;;;;;;;;;5023677;28;20053;-66
2022/01/27 10:36:25;;;;;;;32.95;4.88;;;;;;;;;;5012667;28;20492;-66
2022/01/27 10:38:53;;;;;;;33.08;5.15;;;;;;;;;;5023053;28;20054;-66
2022/01/27 10:41:21;;;;;;;28.60;5.15;;;;;;;;;;5017894;28;20412;-66
2022/01/27 10:43:47;;;;;;;30.85;4.60;;;;;;;;;;5020219;28;20185;-66
2022/01/27 10:46:27;;;;;;;42.67;5.30;;;;;;;;;;5018998;28;20115;-66
2022/01/27 10:49:02;;;;;;;29.23;4.20;;;;;;;;;;5017769;28;20055;-66
2022/01/27 10:51:34;;;;;;;26.98;3.47;;;;;;;;;;5019094;28;20053;-65
2022/01/27 10:54:20;;;;;;;26.50;3.50;;;;;;;;;;5020860;28;20781;-66
2022/01/27 10:56:47;;;;;;;20.45;2.92;;;;;;;;;;5022806;28;20084;-65
2022/01/27 10:59:20;;;;;;;28.70;4.30;;;;;;;;;;5013487;28;20049;-66
2022/01/27 11:01:49;;;;;;;21.20;3.28;;;;;;;;;;5024526;28;20664;-66
2022/01/27 11:04:15;;;;;;;32.15;4.10;;;;;;;;;;5025733;28;20097;-65
2022/01/27 11:06:53;;;;;;;20.58;3.50;;;;;;;;;;5022618;28;20547;-66
2022/01/27 11:09:19;;;;;;;22.27;4.10;;;;;;;;;;5023577;28;20133;-65
2022/01/27 11:11:48;;;;;;;19.63;2.40;;;;;;;;;;5019936;28;20056;-65
2022/01/27 11:14:15;;;;;;;19.45;3.20;;;;;;;;;;5020198;28;20361;-65
2022/01/27 11:16:44;;;;;;;21.02;3.33;;;;;;;;;;5022542;28;20100;-65
2022/01/27 11:19:43;;;;;;;19.52;3.45;;;;;;;;;;5011384;28;21028;-66
2022/01/27 11:22:39;;;;;;;13.65;1.50;;;;;;;;;;5021374;28;20113;-65
2022/01/27 11:25:49;;;;;;;16.65;4.35;;;;;;;;;;5022969;28;20056;-65
2022/01/27 11:27:54;;;;;;;22.98;3.80;;;;;;;;;;5019217;28;20500;-65
2022/01/27 11:30:43;;;;;;;23.63;3.72;;;;;;;;;;5019947;28;20085;-65
2022/01/27 11:33:11;;;;;;;16.73;3.17;;;;;;;;;;5023343;28;20968;-65
2022/01/27 11:36:04;;;;;;;22.70;2.92;;;;;;;;;;5023400;28;20110;-65
2022/01/27 11:38:30;;;;;;;19.83;3.53;;;;;;;;;;5025229;28;20120;-66
2022/01/27 11:41:03;;;;;;;13.57;2.38;;;;;;;;;;5017966;28;20497;-65
2022/01/27 11:43:35;;;;;;;18.70;3.40;;;;;;;;;;5020995;28;20145;-65
2022/01/27 11:46:14;;;;;;;17.23;3.20;;;;;;;;;;5027048;28;20053;-65
2022/01/27 11:48:40;;;;;;;12.88;3.00;;;;;;;;;;5023918;28;20150;-65
2022/01/27 11:51:14;;;;;;;15.55;3.35;;;;;;;;;;5022290;28;20139;-65
2022/01/27 11:53:41;;;;;;;18.73;2.97;;;;;;;;;;5020103;28;20144;-65
2022/01/27 11:56:08;;;;;;;14.40;3.10;;;;;;;;;;5021110;28;20137;-65
2022/01/27 11:58:44;;;;;;;18.20;3.08;;;;;;;;;;5023106;28;20083;-65
2022/01/27 12:01:27;;;;;;;12.70;2.75;;;;;;;;;;5021670;28;20632;-65
2022/01/27 12:04:06;;;;;;;13.15;3.33;;;;;;;;;;5022845;28;20410;-65
2022/01/27 12:06:39;;;;;;;17.33;3.20;;;;;;;;;;5020735;28;20140;-65
2022/01/27 12:09:18;;;;;;;16.52;3.25;;;;;;;;;;5028994;28;20128;-65
2022/01/27 12:11:57;;;;;;;22.67;3.38;;;;;;;;;;5019322;28;20463;-65
2022/01/27 12:14:32;;;;;;;31.88;4.18;;;;;;;;;;5022860;28;20129;-64
2022/01/27 12:17:08;;;;;;;23.98;3.38;;;;;;;;;;5017992;28;20540;-65
2022/01/27 12:19:47;;;;;;;18.70;2.58;;;;;;;;;;5022293;28;20052;-65
2022/01/27 12:22:23;;;;;;;17.48;2.47;;;;;;;;;;5021744;28;20136;-65
2022/01/27 12:24:56;;;;;;;23.95;3.72;;;;;;;;;;5018906;28;20128;-65
2022/01/27 12:27:24;;;;;;;16.55;2.72;;;;;;;;;;5026096;28;20144;-65
2022/01/27 12:30:11;;;;;;;23.45;3.53;;;;;;;;;;5022818;28;20440;-65
2022/01/27 12:32:45;;;;;;;14.75;2.45;;;;;;;;;;5018785;28;20053;-65
2022/01/27 12:35:15;;;;;;;16.95;3.03;;;;;;;;;;5020503;28;20148;-65
2022/01/27 12:37:43;;;;;;;16.08;2.22;;;;;;;;;;5019689;28;20128;-65
2022/01/27 12:40:20;;;;;;;20.38;3.35;;;;;;;;;;5021719;28;20136;-65
2022/01/27 12:42:55;;;;;;;15.25;2.75;;;;;;;;;;5020433;28;20073;-65
2022/01/27 12:45:27;;;;;;;15.25;3.38;;;;;;;;;;5039997;28;20045;-65
2022/01/27 12:47:54;;;;;;;18.42;2.60;;;;;;;;;;5046314;28;20080;-64
2022/01/27 12:50:23;;;;;;;13.80;2.85;;;;;;;;;;5041710;28;20084;-64
2022/01/27 12:52:56;;;;;;;16.60;2.75;;;;;;;;;;5043665;28;20077;-64
2022/01/27 12:55:33;;;;;;;15.02;2.72;;;;;;;;;;5041091;28;20052;-64
2022/01/27 12:58:04;;;;;;;13.90;3.00;;;;;;;;;;5041785;28;20159;-64
2022/01/27 13:00:38;;;;;;;17.05;3.90;;;;;;;;;;5041780;28;20045;-65
2022/01/27 13:03:04;;;;;;;16.98;2.85;;;;;;;;;;5041186;28;20044;-64
2022/01/27 13:05:38;;;;;;;16.45;2.88;;;;;;;;;;5042466;28;20132;-65
2022/01/27 13:08:06;;;;;;;16.17;2.80;;;;;;;;;;5041138;28;20052;-64
2022/01/27 13:10:33;;;;;;;15.10;3.00;;;;;;;;;;5041259;28;20861;-64
2022/01/27 13:13:07;;;;;;;13.20;3.47;;;;;;;;;;5042793;28;20655;-64
2022/01/27 13:15:36;;;;;;;26.67;3.55;;;;;;;;;;5042144;28;20045;-64
2022/01/27 13:18:11;;;;;;;19.37;3.10;;;;;;;;;;5042532;28;20097;-65
2022/01/27 13:20:43;;;;;;;24.33;3.55;;;;;;;;;;5043280;28;20056;-64
2022/01/27 13:23:27;;;;;;;18.40;3.65;;;;;;;;;;5040891;28;20049;-64
2022/01/27 13:25:58;;;;;;;19.67;3.53;;;;;;;;;;5043479;28;20543;-65
2022/01/27 13:28:27;;;;;;;16.42;2.50;;;;;;;;;;5039936;28;20106;-64
2022/01/27 13:31:01;;;;;;;19.65;3.90;;;;;;;;;;5042180;28;20493;-64
2022/01/27 13:33:34;;;;;;;20.73;3.60;;;;;;;;;;5040477;28;20041;-64
2022/01/27 13:36:00;;;;;;;24.40;4.20;;;;;;;;;;5042372;28;20523;-64
2022/01/27 13:38:36;;;;;;;18.98;3.50;;;;;;;;;;5041614;28;20401;-64
2022/01/27 13:41:19;;;;;;;20.52;3.38;;;;;;;;;;5043050;28;20079;-64
2022/01/27 13:43:50;;;;;;;23.83;3.38;;;;;;;;;;5042578;28;20057;-64
2022/01/27 13:46:36;;;;;;;16.73;3.45;;;;;;;;;;5040090;28;20448;-64
2022/01/27 13:49:14;;;;;;;18.38;3.95;;;;;;;;;;5039630;28;20053;-64
2022/01/27 13:51:57;;;;;;;18.75;2.72;;;;;;;;;;5042671;28;20084;-64
2022/01/27 13:54:34;;;;;;;21.23;3.00;;;;;;;;;;5045161;28;20077;-64
2022/01/27 13:57:06;;;;;;;14.63;3.08;;;;;;;;;;5047142;28;20091;-64
2022/01/27 13:59:41;;;;;;;18.88;3.40;;;;;;;;;;5047034;28;20472;-64
2022/01/27 14:02:13;;;;;;;25.88;4.07;;;;;;;;;;5046213;28;20057;-64
2022/01/27 14:04:43;;;;;;;19.30;3.10;;;;;;;;;;5044705;28;20057;-64
2022/01/27 14:07:09;;;;;;;23.08;3.83;;;;;;;;;;5043291;28;20055;-64
2022/01/27 14:09:40;;;;;;;17.50;3.67;;;;;;;;;;5045799;28;20616;-64
2022/01/27 14:12:06;;;;;;;20.67;3.75;;;;;;;;;;5046412;28;20052;-64
2022/01/27 14:14:46;;;;;;;22.27;3.78;;;;;;;;;;5048823;28;20052;-64
2022/01/27 14:17:23;;;;;;;22.67;3.13;;;;;;;;;;5047418;28;20094;-64
2022/01/27 14:19:57;;;;;;;19.83;3.33;;;;;;;;;;5048619;28;20049;-64
2022/01/27 14:22:27;;;;;;;16.98;2.95;;;;;;;;;;5041106;28;20452;-64
2022/01/27 14:25:09;;;;;;;23.00;3.45;;;;;;;;;;5043427;28;20046;-64
2022/01/27 14:27:37;;;;;;;20.00;3.80;;;;;;;;;;5043326;28;20141;-64
2022/01/27 14:30:12;;;;;;;20.52;3.70;;;;;;;;;;5046357;28;20080;-64
2022/01/27 14:32:41;;;;;;;21.23;3.28;;;;;;;;;;5043461;28;20053;-64
2022/01/27 14:35:08;;;;;;;20.95;3.67;;;;;;;;;;5042248;28;20497;-64
2022/01/27 14:37:36;;;;;;;24.35;3.22;;;;;;;;;;5045641;28;20049;-64
2022/01/27 14:40:13;;;;;;;18.00;3.05;;;;;;;;;;5042175;28;20060;-64
2022/01/27 14:42:42;;;;;;;17.13;3.47;;;;;;;;;;5041732;28;20162;-64
2022/01/27 14:45:09;;;;;;;19.25;2.95;;;;;;;;;;5042830;28;20049;-64
2022/01/27 14:47:42;;;;;;;17.80;2.55;;;;;;;;;;5044315;28;20137;-64
2022/01/27 14:50:08;;;;;;;18.48;2.88;;;;;;;;;;5044895;28;20547;-64
2022/01/27 14:52:36;;;;;;;20.33;3.25;;;;;;;;;;5043817;28;20137;-64
2022/01/27 14:55:04;;;;;;;20.60;3.45;;;;;;;;;;5043921;28;20060;-64
2022/01/27 14:57:37;;;;;;;17.15;3.00;;;;;;;;;;5046189;28;20053;-64
2022/01/27 15:00:05;;;;;;;16.73;3.30;;;;;;;;;;5044230;28;20092;-64
2022/01/27 15:02:32;;;;;;;20.88;3.92;;;;;;;;;;5048212;28;20051;-64
2022/01/27 15:04:59;;;;;;;15.23;3.13;;;;;;;;;;5044517;28;20044;-64
2022/01/27 15:07:25;;;;;;;15.23;3.00;;;;;;;;;;5041164;28;20132;-64
2022/01/27 15:09:55;;;;;;;18.83;2.85;;;;;;;;;;5044132;28;20048;-64
2022/01/27 15:12:21;;;;;;;13.55;2.30;;;;;;;;;;5042106;28;20126;-64
2022/01/27 15:20:18;;;;;;;20.17;3.00;;;;;;;;;;5043769;28;20076;-64
2022/01/27 15:22:52;;;;;;;15.23;2.38;;;;;;;;;;5041136;28;20089;-64
2022/01/27 15:25:19;;;;;;;17.80;3.33;;;;;;;;;;5043975;28;20052;-64
2022/01/27 15:27:46;;;;;;;19.30;3.60;;;;;;;;;;5042390;28;20686;-64
2022/01/27 15:30:13;;;;;;;18.55;2.90;;;;;;;;;;5037456;28;20045;-63
2022/01/27 15:32:44;;;;;;;14.80;3.28;;;;;;;;;;5040090;28;20057;-64
2022/01/27 15:35:13;;;;;;;22.52;3.20;;;;;;;;;;5039953;28;20544;-64